Flight Track Log - Related Links

Times and Time Zones

All times are in EDT time to prevent confusion due to time zone crossing. See the DAL1716 flight status page for this flight to view local times or setup timezone preferences in your user account.

Time Position Orientation Groundspeed Altitude Reporting Facility
EDT Latitude Longitude Course Direction KTS MPH feet Rate Location/Type
Mon 11:12:48 AM 39.8667 -104.5500 105° East 245 282 7,400  Level Denver TRACON
Mon 11:13:48 AM 39.8333 -104.4500 113° Southeast 303 349 9,700 1,902 Climbing Denver TRACON
Mon 11:14:10 AM 39.8158 -104.4114 121° Southeast 290 334 10,000 643 Climbing Denver Center
Mon 11:15:00 AM 39.6618 -104.0354 113° Southeast  Level FlightAware Approximate
Mon 11:15:12 AM 39.7792 -104.3053 114° Southeast 327 376 10,600  Level Denver Center
Mon 11:16:00 AM 39.6098 -103.8793 113° Southeast  Level FlightAware Approximate
Mon 11:16:14 AM 39.7319 -104.1703 114° Southeast 383 441 12,600  Level Denver Center
Mon 11:17:00 AM 39.5609 -103.7228 105° East  Level FlightAware Approximate
Mon 11:17:16 AM 39.6836 -104.0342 115° Southeast 414 476 14,600  Level Denver Center
Mon 11:18:00 AM 39.5258 -103.5591 105° East  Level FlightAware Approximate
Mon 11:18:18 AM 39.6314 -103.8936 116° Southeast 432 497 16,800  Level Denver Center
Mon 11:19:20 AM 39.5786 -103.7442 115° Southeast 447 514 18,600 1,645 Climbing Denver Center
Mon 11:20:22 AM 39.5383 -103.5944 109° East 452 520 20,200 1,694 Climbing Denver Center
Mon 11:21:24 AM 39.4883 -103.4003 108° East 481 554 22,100 1,694 Climbing Denver Center
Mon 11:22:26 AM 39.4447 -103.2300 108° East 494 568 23,700 1,500 Climbing Denver Center
Mon 11:23:28 AM 39.3967 -103.0572 110° East 504 580 25,200 1,258 Climbing Denver Center
Mon 11:24:30 AM 39.3500 -102.8808 109° East 512 589 26,300 1,161 Climbing Denver Center
Mon 11:25:32 AM 39.3022 -102.7047 109° East 521 600 27,600 1,210 Climbing Denver Center
Mon 11:26:34 AM 39.2450 -102.5028 110° East 536 617 28,800 1,258 Climbing Denver Center
Mon 11:27:36 AM 39.1981 -102.3281 109° East 538 619 30,200 1,016 Climbing Denver Center
Mon 11:28:38 AM 39.1431 -102.1217 109° East 544 626 30,900 387 Climbing Denver Center
Mon 11:29:40 AM 39.0928 -101.9461 110° East 546 628 31,000 48 Climbing Denver Center
Mon 11:30:42 AM 39.0342 -101.7406 110° East 547 629 31,000  Level Denver Center
Mon 11:31:44 AM 38.9831 -101.5653 111° Southeast 546 628 31,000  Level Denver Center
Mon 11:32:46 AM 38.9322 -101.3883 110° East 550 633 31,000  Level Denver Center
Mon 11:33:48 AM 38.8731 -101.1842 110° East 547 629 31,000  Level Denver Center
Mon 11:34:50 AM 38.8208 -101.0103 111° Southeast 546 628 31,000  Level Denver Center
Mon 11:35:52 AM 38.7608 -100.8061 111° Southeast 546 628 31,000  Level Denver Center
Mon 11:36:54 AM 38.7086 -100.6303 111° Southeast 550 633 31,000  Level Denver Center
Mon 11:37:56 AM 38.6478 -100.4281 111° Southeast 546 628 31,000  Level Denver Center
Mon 11:38:59 AM 38.5961 -100.2567 111° Southeast 540 621 31,000  Level Denver Center
Mon 11:40:01 AM 38.5342 -100.0547 111° Southeast 544 626 31,000  Level Denver Center
Mon 11:41:03 AM 38.4822 -99.8822 111° Southeast 544 626 31,000  Level Denver Center
Mon 11:41:43 AM 38.4400 -99.7675 115° Southeast 542 624 31,000  Level Kansas City Center
Mon 11:42:46 AM 38.3628 -99.5767 117° Southeast 541 623 31,000  Level Kansas City Center
Mon 11:43:47 AM 38.2978 -99.4178 117° Southeast 539 620 31,000  Level Kansas City Center
Mon 11:44:51 AM 38.2278 -99.2483 118° Southeast 541 623 31,000  Level Kansas City Center
Mon 11:45:52 AM 38.1586 -99.0800 118° Southeast 540 621 31,000  Level Kansas City Center
Mon 11:46:53 AM 38.0897 -98.9119 117° Southeast 538 619 31,000  Level Kansas City Center
Mon 11:47:56 AM 38.0067 -98.7108 118° Southeast 538 619 31,000  Level Kansas City Center
Mon 11:48:57 AM 37.9367 -98.5447 118° Southeast 536 617 31,000  Level Kansas City Center
Mon 11:49:58 AM 37.8686 -98.3783 117° Southeast 535 616 31,000  Level Kansas City Center
Mon 11:51:02 AM 37.7983 -98.2142 118° Southeast 536 617 31,000  Level Kansas City Center
Mon 11:52:04 AM 37.7147 -98.0197 118° Southeast 540 621 31,000  Level Kansas City Center
Mon 11:53:07 AM 37.6436 -97.8547 119° Southeast 537 618 31,000  Level Kansas City Center
Mon 11:54:08 AM 37.5747 -97.6903 118° Southeast 538 619 31,000  Level Kansas City Center
Mon 11:55:09 AM 37.5044 -97.5283 119° Southeast 532 612 31,000  Level Kansas City Center
Mon 11:56:13 AM 37.4344 -97.3633 118° Southeast 535 616 31,000  Level Kansas City Center
Mon 11:57:14 AM 37.3633 -97.2033 119° Southeast 527 606 31,000  Level Kansas City Center
Mon 11:58:17 AM 37.2769 -97.0114 119° Southeast 527 606 31,000  Level Kansas City Center
Mon 11:59:18 AM 37.2061 -96.8506 119° Southeast 528 608 31,000  Level Kansas City Center
Mon 12:00:21 PM 37.1353 -96.6911 119° Southeast 527 606 31,000  Level Kansas City Center
Mon 12:01:21 PM 37.0556 -96.5089 119° Southeast 521 600 31,000  Level Kansas City Center
Mon 12:02:25 PM 36.9839 -96.3494 119° Southeast 522 601 31,000  Level Kansas City Center
Mon 12:03:26 PM 36.9131 -96.1903 119° Southeast 522 601 31,000  Level Kansas City Center
Mon 12:04:27 PM 36.8417 -96.0314 119° Southeast 521 600 31,000  Level Kansas City Center
Mon 12:06:32 PM 36.7364 -95.6894 111° Southeast 527 606 31,000  Level Kansas City Center
Mon 12:07:33 PM 36.6844 -95.5189 111° Southeast 522 601 31,000  Level Kansas City Center
Mon 12:08:37 PM 36.6314 -95.3461 111° Southeast 523 602 31,000  Level Kansas City Center
Mon 12:09:38 PM 36.5731 -95.1589 111° Southeast 522 601 31,000  Level Kansas City Center
Mon 12:10:42 PM 36.5153 -94.9700 111° Southeast 521 600 31,000  Level Kansas City Center
Mon 12:11:42 PM 36.4619 -94.8011 111° Southeast 522 601 31,000  Level Kansas City Center
Mon 12:12:43 PM 36.4092 -94.6331 111° Southeast 522 601 31,000  Level Kansas City Center
Mon 12:13:47 PM 36.3561 -94.4639 111° Southeast 522 601 31,000  Level Kansas City Center
Mon 12:14:48 PM 36.3008 -94.2956 112° Southeast 525 604 31,000  Level Kansas City Center
Mon 12:15:57 PM 36.2403 -94.0983 111° Southeast 524 603 31,000  Level Memphis Center
Mon 12:16:57 PM 36.1911 -93.9189 109° East 514 592 31,000  Level Memphis Center
Mon 12:17:57 PM 36.1417 -93.7469 110° East 514 592 31,000  Level Memphis Center
Mon 12:18:57 PM 36.0942 -93.5833 110° East 514 592 31,000  Level Memphis Center
Mon 12:19:57 PM 36.0461 -93.4119 109° East 514 592 31,000  Level Memphis Center
Mon 12:20:57 PM 36.0000 -93.2458 109° East 514 592 31,000  Level Memphis Center
Mon 12:21:58 PM 35.9517 -93.0803 110° East 514 592 31,000  Level Memphis Center
Mon 12:22:58 PM 35.9033 -92.9094 109° East 514 592 31,000  Level Memphis Center
Mon 12:23:58 PM 35.8564 -92.7442 109° East 514 592 31,000  Level Memphis Center
Mon 12:24:58 PM 35.8075 -92.5764 110° East 514 592 31,000  Level Memphis Center
Mon 12:25:57 PM 35.7603 -92.4086 109° East 514 592 31,000  Level Memphis Center
Mon 12:26:57 PM 35.7106 -92.2439 110° East 514 592 31,000  Level Memphis Center
Mon 12:27:58 PM 35.6608 -92.0792 110° East 514 592 31,000  Level Memphis Center
Mon 12:28:57 PM 35.6111 -91.9122 110° East 514 592 31,000  Level Memphis Center
Mon 12:29:57 PM 35.5650 -91.7506 109° East 514 592 31,000  Level Memphis Center
Mon 12:30:57 PM 35.5125 -91.5839 111° Southeast 514 592 31,000  Level Memphis Center
Mon 12:31:57 PM 35.4658 -91.4225 110° East 514 592 31,000  Level Memphis Center
Mon 12:32:58 PM 35.4172 -91.2589 110° East 509 586 31,000 -550 Level Memphis Center
Mon 12:33:57 PM 35.3681 -91.1006 111° Southeast 509 586 29,900 -950 Descending Memphis Center
Mon 12:34:58 PM 35.3231 -90.9603 111° Southeast 501 577 29,100 -450 Descending Memphis Center
Mon 12:35:57 PM 35.2736 -90.8022 111° Southeast 491 565 29,000 -50 Descending Memphis Center
Mon 12:36:58 PM 35.2197 -90.6289 111° Southeast 491 565 29,000  Level Memphis Center
Mon 12:37:57 PM 35.1700 -90.4739 111° Southeast 492 566 29,000  Level Memphis Center
Mon 12:38:57 PM 35.1200 -90.3139 111° Southeast 497 572 29,000  Level Memphis Center
Mon 12:39:58 PM 35.0719 -90.1517 110° East 497 572 29,000  Level Memphis Center
Mon 12:40:57 PM 35.0236 -89.9944 111° Southeast 491 565 29,000  Level Memphis Center
Mon 12:41:58 PM 34.9978 -89.8247 100° East 491 565 29,000  Level Memphis Center
Mon 12:42:58 PM 34.9719 -89.6653 101° East 512 589 29,000  Level Memphis Center
Mon 12:43:58 PM 34.9439 -89.4931 101° East 522 601 29,000  Level Memphis Center
Mon 12:44:57 PM 34.9194 -89.3211 100° East 522 601 29,000  Level Memphis Center
Mon 12:45:57 PM 34.8908 -89.1394 101° East 517 595 29,000  Level Memphis Center
Mon 12:46:57 PM 34.8639 -88.9700 101° East 511 588 29,000  Level Memphis Center
Mon 12:47:58 PM 34.8389 -88.8011 100° East 505 581 29,000  Level Memphis Center
Mon 12:48:57 PM 34.8117 -88.6347 101° East 505 581 29,000  Level Memphis Center
Mon 12:49:57 PM 34.7889 -88.4908 101° East 493 567 29,000  Level Memphis Center
Mon 12:50:58 PM 34.7633 -88.3247 101° East 485 558 29,000  Level Memphis Center
Mon 12:51:58 PM 34.7347 -88.1308 100° East 511 588 29,000  Level Memphis Center
Mon 12:52:57 PM 34.7067 -87.9647 102° East 517 595 29,000  Level Memphis Center
Mon 12:53:57 PM 34.6761 -87.7964 102° East 510 587 29,000  Level Memphis Center
Mon 12:54:57 PM 34.6564 -87.6481 99° East 503 579 29,000  Level Memphis Center
Mon 12:55:58 PM 34.6231 -87.4675 103° East 498 573 29,000  Level Memphis Center
Mon 12:56:41 PM 34.6072 -87.3625 100° East 508 585 29,000  Level Atlanta Center
Mon 12:57:41 PM 34.5739 -87.1972 104° East 519 597 29,000  Level Atlanta Center
Mon 12:58:41 PM 34.5428 -87.0297 103° East 504 580 29,000  Level Atlanta Center
Mon 12:59:41 PM 34.5111 -86.8622 103° East 504 580 29,000 -100 Level Atlanta Center
Mon 01:00:41 PM 34.4814 -86.6997 102° East 497 572 28,800 -550 Descending Atlanta Center
Mon 01:01:41 PM 34.4472 -86.5350 104° East 497 572 27,900 -950 Descending Atlanta Center
Mon 01:02:41 PM 34.4150 -86.3706 103° East 491 565 26,900 -750 Descending Atlanta Center
Mon 01:03:41 PM 34.3825 -86.2058 103° East 491 565 26,400 -600 Descending Atlanta Center
Mon 01:04:41 PM 34.3519 -86.0417 103° East 491 565 25,700 -750 Descending Atlanta Center
Mon 01:05:41 PM 34.3169 -85.8772 104° East 491 565 24,900 -1,350 Descending Atlanta Center
Mon 01:06:41 PM 34.2900 -85.7233 102° East 475 547 23,000 -2,300 Descending Atlanta Center
Mon 01:07:41 PM 34.2564 -85.5744 105° East 461 531 20,300 -2,600 Descending Atlanta Center
Mon 01:08:41 PM 34.2289 -85.4308 103° East 446 513 17,800 -2,650 Descending Atlanta Center
Mon 01:09:41 PM 34.1992 -85.2919 104° East 433 498 15,000 -2,350 Descending Atlanta Center
Mon 01:10:41 PM 34.1731 -85.1611 104° East 408 470 13,100 -1,000 Descending Atlanta Center
Mon 01:11:41 PM 34.1156 -85.0550 123° Southeast 359 413 13,000 -150 Descending Atlanta Center
Mon 01:12:41 PM 34.0494 -84.9864 139° Southeast 325 374 12,800 -900 Descending Atlanta Center
Mon 01:13:41 PM 33.9683 -84.9606 165° South 295 339 11,200 -1,400 Descending Atlanta Center
Mon 01:14:41 PM 33.8911 -84.9322 163° South 290 334 10,000 -600 Descending Atlanta Center
Mon 01:15:41 PM 33.8119 -84.9139 169° South 290 334 10,000 -200 Level Atlanta Center
Mon 01:16:41 PM 33.7328 -84.9056 175° South 290 334 9,600 -1,050 Descending Atlanta Center
Mon 01:17:41 PM 33.6536 -84.8972 175° South 290 334 7,900 -1,300 Descending Atlanta Center
Mon 01:18:41 PM 33.6228 -84.8297 119° Southeast 244 281 7,000 -939 Descending Atlanta Center
Mon 01:19:36 PM 33.6333 -84.7333 82° East 273 314 6,100 -982 Descending Atlanta TRACON

Login

Don't have an account? Register now (free) for customized features, flight alerts, and more!